Time;durP1;ratioP1;P1;durP2;ratioP2;P2;SDS_P1;SDS_P2;PMS_P1;PMS_P2;Temp;Humidity;BMP_temperature;BMP_pressure;BME280_temperature;BME280_humidity;BME280_pressure;Samples;Min_cycle;Max_cycle;Signal;HPM_P1;HPM_P2
2022/10/02 00:01:00;;;;;;;0.40;0.38;;;;;;;;;;5097844;28;20044;-73
2022/10/02 00:03:28;;;;;;;2.47;0.95;;;;;;;;;;5098011;28;20521;-73
2022/10/02 00:06:04;;;;;;;2.03;1.08;;;;;;;;;;5098320;28;20047;-73
2022/10/02 00:08:33;;;;;;;1.30;0.70;;;;;;;;;;5098406;28;20040;-73
2022/10/02 00:11:03;;;;;;;3.05;1.13;;;;;;;;;;5097853;28;20066;-73
2022/10/02 00:13:44;;;;;;;3.28;1.30;;;;;;;;;;5097852;28;20102;-73
2022/10/02 00:16:09;;;;;;;;;;;;;;;;;;5098908;28;20463;-73
2022/10/02 00:18:36;;;;;;;1.83;1.05;;;;;;;;;;5097479;28;19915;-73
2022/10/02 00:21:05;;;;;;;1.42;0.95;;;;;;;;;;5097737;28;20115;-73
2022/10/02 00:23:51;;;;;;;1.48;0.90;;;;;;;;;;5097797;28;20140;-73
2022/10/02 00:26:23;;;;;;;2.28;1.48;;;;;;;;;;5095513;28;20463;-74
2022/10/02 00:28:52;;;;;;;1.20;1.08;;;;;;;;;;5096924;28;20040;-73
2022/10/02 00:31:24;;;;;;;1.67;0.90;;;;;;;;;;5096995;28;20044;-73
2022/10/02 00:34:06;;;;;;;1.48;1.38;;;;;;;;;;5097103;28;20050;-73
2022/10/02 00:36:43;;;;;;;2.95;1.20;;;;;;;;;;5097399;28;20115;-74
2022/10/02 00:39:12;;;;;;;2.20;1.42;;;;;;;;;;5097405;28;20048;-73
2022/10/02 00:41:57;;;;;;;2.00;0.80;;;;;;;;;;5097027;28;20044;-73
2022/10/02 00:44:30;;;;;;;2.15;1.25;;;;;;;;;;5096989;28;20475;-73
2022/10/02 00:47:08;;;;;;;4.22;1.17;;;;;;;;;;5095776;28;20040;-73
2022/10/02 00:49:53;;;;;;;2.88;0.98;;;;;;;;;;5096537;28;20048;-73
2022/10/02 00:52:19;;;;;;;1.75;0.63;;;;;;;;;;5097098;28;20048;-73
2022/10/02 00:54:45;;;;;;;1.02;0.77;;;;;;;;;;5096823;28;20127;-74
2022/10/02 00:57:30;;;;;;;2.20;0.82;;;;;;;;;;5096752;28;20502;-73
2022/10/02 01:00:02;;;;;;;1.45;0.70;;;;;;;;;;5096421;28;20048;-73
2022/10/02 01:02:31;;;;;;;1.10;0.90;;;;;;;;;;5096961;28;20043;-74
2022/10/02 01:05:01;;;;;;;1.73;0.90;;;;;;;;;;5096577;28;20040;-73
2022/10/02 01:07:28;;;;;;;4.50;1.15;;;;;;;;;;5096340;28;20048;-73
2022/10/02 01:09:54;;;;;;;1.80;1.00;;;;;;;;;;5096416;28;20138;-73
2022/10/02 01:12:21;;;;;;;1.10;1.00;;;;;;;;;;5096740;28;20103;-73
2022/10/02 01:14:47;;;;;;;3.38;1.30;;;;;;;;;;5096384;28;20048;-74
2022/10/02 01:17:33;;;;;;;2.88;1.52;;;;;;;;;;5096357;28;20044;-73
2022/10/02 01:20:01;;;;;;;1.40;1.30;;;;;;;;;;5096285;28;20047;-73
2022/10/02 01:22:42;;;;;;;1.30;1.10;;;;;;;;;;5096865;28;20048;-74
2022/10/02 01:25:08;;;;;;;3.72;1.20;;;;;;;;;;5095926;28;20067;-73
2022/10/02 01:27:35;;;;;;;2.78;1.50;;;;;;;;;;5096153;28;20399;-74
2022/10/02 01:30:04;;;;;;;3.15;1.17;;;;;;;;;;5096326;28;20127;-74
2022/10/02 01:32:31;;;;;;;4.57;1.05;;;;;;;;;;5096541;28;20052;-73
2022/10/02 01:34:59;;;;;;;2.33;1.20;;;;;;;;;;5095997;28;20035;-74
2022/10/02 01:37:28;;;;;;;1.00;0.80;;;;;;;;;;5096218;28;20036;-73
2022/10/02 01:39:55;;;;;;;2.05;1.10;;;;;;;;;;5096199;28;20044;-73
2022/10/02 01:42:22;;;;;;;2.50;1.23;;;;;;;;;;5096106;28;20082;-74
2022/10/02 01:44:48;;;;;;;2.45;1.30;;;;;;;;;;5095877;28;20040;-73
2022/10/02 01:47:25;;;;;;;2.60;1.30;;;;;;;;;;5095489;28;20044;-73
2022/10/02 01:50:15;;;;;;;1.80;1.25;;;;;;;;;;5095392;28;20052;-73
2022/10/02 01:52:47;;;;;;;3.72;1.27;;;;;;;;;;5096276;28;20052;-73
2022/10/02 01:55:32;;;;;;;3.28;1.25;;;;;;;;;;5095626;28;20040;-73
2022/10/02 01:58:15;;;;;;;2.85;1.30;;;;;;;;;;5095183;28;20036;-73
2022/10/02 02:01:01;;;;;;;3.92;1.33;;;;;;;;;;5096079;28;20044;-73
2022/10/02 02:03:45;;;;;;;2.63;1.10;;;;;;;;;;5095765;28;20044;-73
2022/10/02 02:06:17;;;;;;;2.88;1.40;;;;;;;;;;5095835;28;20040;-73
2022/10/02 02:08:46;;;;;;;1.90;1.27;;;;;;;;;;5095594;28;20040;-73
2022/10/02 02:11:12;;;;;;;3.47;1.15;;;;;;;;;;5095832;28;20040;-73
2022/10/02 02:13:45;;;;;;;1.45;1.10;;;;;;;;;;5094963;28;20067;-73
2022/10/02 02:16:17;;;;;;;1.67;1.30;;;;;;;;;;5095316;28;20040;-73
2022/10/02 02:18:48;;;;;;;1.10;0.90;;;;;;;;;;5095251;28;20104;-73
2022/10/02 02:21:14;;;;;;;;;;;;;;;;;;5095477;28;20068;-73
2022/10/02 02:23:41;;;;;;;2.67;1.40;;;;;;;;;;5095518;28;20350;-73
2022/10/02 02:26:11;;;;;;;1.90;1.30;;;;;;;;;;5094827;28;20046;-74
2022/10/02 02:28:40;;;;;;;8.03;1.30;;;;;;;;;;5095206;28;20089;-73
2022/10/02 02:31:08;;;;;;;2.85;1.40;;;;;;;;;;5095804;28;20039;-73
2022/10/02 02:33:44;;;;;;;2.00;1.25;;;;;;;;;;5095494;28;20047;-73
2022/10/02 02:36:12;;;;;;;2.17;1.30;;;;;;;;;;5095564;28;20048;-73
2022/10/02 02:38:51;;;;;;;1.98;1.30;;;;;;;;;;5095407;28;20036;-73
2022/10/02 02:41:25;;;;;;;1.70;1.10;;;;;;;;;;5095283;28;20051;-73
2022/10/02 02:44:02;;;;;;;1.73;1.10;;;;;;;;;;5095127;28;20514;-73
2022/10/02 02:46:31;;;;;;;2.08;1.05;;;;;;;;;;5110250;28;20031;-73
2022/10/02 02:49:00;;;;;;;5.45;1.30;;;;;;;;;;5114112;28;20494;-73
2022/10/02 02:51:29;;;;;;;3.60;1.25;;;;;;;;;;5113974;28;20039;-73
2022/10/02 02:54:04;;;;;;;1.40;1.30;;;;;;;;;;5115165;28;20093;-73
2022/10/02 02:56:32;;;;;;;2.05;1.10;;;;;;;;;;5112483;28;20040;-73
2022/10/02 02:59:14;;;;;;;1.08;1.00;;;;;;;;;;5115219;28;20043;-73
2022/10/02 03:01:41;;;;;;;2.88;1.40;;;;;;;;;;5114430;28;20188;-73
2022/10/02 03:04:09;;;;;;;4.30;1.27;;;;;;;;;;5115213;28;20078;-73
2022/10/02 03:06:37;;;;;;;1.38;1.10;;;;;;;;;;5115276;28;20071;-73
2022/10/02 03:09:07;;;;;;;3.53;1.20;;;;;;;;;;5115825;28;20067;-73
2022/10/02 03:11:37;;;;;;;1.73;1.30;;;;;;;;;;5119255;28;20070;-73
2022/10/02 03:14:24;;;;;;;3.00;1.30;;;;;;;;;;5119513;28;20032;-73
2022/10/02 03:16:50;;;;;;;5.97;1.35;;;;;;;;;;5119548;28;20043;-73
2022/10/02 03:19:16;;;;;;;1.85;1.40;;;;;;;;;;5119263;28;20047;-73
2022/10/02 03:22:04;;;;;;;2.25;1.55;;;;;;;;;;5119461;28;20545;-73
2022/10/02 03:24:33;;;;;;;4.00;1.33;;;;;;;;;;5119402;28;20044;-73
2022/10/02 03:27:05;;;;;;;3.78;1.40;;;;;;;;;;5118666;28;20043;-73
2022/10/02 03:29:36;;;;;;;3.80;1.27;;;;;;;;;;5118620;28;20047;-73
2022/10/02 03:32:03;;;;;;;2.92;1.65;;;;;;;;;;5118953;28;20166;-73
2022/10/02 03:34:31;;;;;;;3.45;1.52;;;;;;;;;;5118747;28;20080;-73
2022/10/02 03:36:58;;;;;;;3.45;1.63;;;;;;;;;;5118876;28;20067;-73
2022/10/02 03:39:24;;;;;;;3.35;1.88;;;;;;;;;;5118787;28;20502;-73
2022/10/02 03:41:50;;;;;;;2.80;1.60;;;;;;;;;;5118643;28;20059;-73
2022/10/02 03:44:16;;;;;;;3.95;1.75;;;;;;;;;;5118385;28;20116;-73
2022/10/02 03:46:42;;;;;;;2.92;1.50;;;;;;;;;;5118674;28;20035;-73
2022/10/02 03:49:08;;;;;;;2.40;1.77;;;;;;;;;;5118392;28;20043;-73
2022/10/02 03:51:34;;;;;;;4.10;1.80;;;;;;;;;;5118983;28;20055;-73
2022/10/02 03:54:01;;;;;;;2.50;1.92;;;;;;;;;;5118574;28;20040;-73
2022/10/02 03:56:35;;;;;;;4.65;2.10;;;;;;;;;;5118584;28;20486;-73
2022/10/02 03:59:02;;;;;;;2.90;1.58;;;;;;;;;;5118427;28;20047;-73
2022/10/02 04:01:32;;;;;;;5.70;4.20;;;;;;;;;;5118502;28;20432;-73
2022/10/02 04:04:04;;;;;;;7.00;3.13;;;;;;;;;;5118475;28;20043;-73
2022/10/02 04:06:51;;;;;;;4.25;2.45;;;;;;;;;;5118227;28;20494;-73
2022/10/02 04:09:20;;;;;;;8.48;3.20;;;;;;;;;;5117873;28;20051;-73
2022/10/02 04:11:49;;;;;;;3.95;2.35;;;;;;;;;;5117754;28;20074;-73
2022/10/02 04:14:32;;;;;;;6.85;2.58;;;;;;;;;;5116836;28;20047;-73
2022/10/02 04:16:58;;;;;;;6.75;2.60;;;;;;;;;;5117972;28;20436;-73
2022/10/02 04:19:37;;;;;;;3.45;2.30;;;;;;;;;;5117876;28;20067;-73
2022/10/02 04:22:12;;;;;;;5.65;2.30;;;;;;;;;;5117916;28;20058;-73
2022/10/02 04:24:43;;;;;;;2.88;2.65;;;;;;;;;;5117503;28;20063;-73
2022/10/02 04:27:13;;;;;;;3.67;2.40;;;;;;;;;;5117792;28;20047;-73
2022/10/02 04:29:43;;;;;;;5.25;2.53;;;;;;;;;;5117433;28;20046;-73
2022/10/02 04:32:13;;;;;;;3.35;2.42;;;;;;;;;;5118010;28;20040;-73
2022/10/02 04:34:40;;;;;;;;;;;;;;;;;;5118054;28;20543;-73
2022/10/02 04:37:24;;;;;;;1.67;1.45;;;;;;;;;;5117616;28;20346;-73
2022/10/02 04:39:50;;;;;;;1.88;1.70;;;;;;;;;;5117512;28;20096;-73
2022/10/02 04:42:23;;;;;;;2.42;1.45;;;;;;;;;;5117542;28;20047;-73
2022/10/02 04:44:49;;;;;;;2.65;1.60;;;;;;;;;;5117507;28;20047;-73
2022/10/02 04:47:35;;;;;;;1.63;1.52;;;;;;;;;;5117379;28;20036;-73
2022/10/02 04:50:04;;;;;;;4.03;1.40;;;;;;;;;;5117914;28;20130;-73
2022/10/02 04:52:36;;;;;;;2.20;1.63;;;;;;;;;;5117595;28;20047;-73
2022/10/02 04:55:06;;;;;;;5.20;2.65;;;;;;;;;;5117308;28;20035;-73
2022/10/02 04:57:38;;;;;;;4.40;3.00;;;;;;;;;;5117050;28;20035;-73
2022/10/02 05:00:20;;;;;;;4.32;2.63;;;;;;;;;;5116853;28;20043;-73
2022/10/02 05:03:05;;;;;;;6.22;2.88;;;;;;;;;;5117384;28;20040;-73
2022/10/02 05:05:43;;;;;;;4.95;3.80;;;;;;;;;;5116958;28;20036;-73
2022/10/02 05:08:32;;;;;;;4.57;3.10;;;;;;;;;;5116959;28;20046;-73
2022/10/02 05:11:12;;;;;;;3.97;2.95;;;;;;;;;;5116760;28;20163;-73
2022/10/02 05:13:51;;;;;;;4.82;3.10;;;;;;;;;;5117113;28;20083;-73
2022/10/02 05:16:20;;;;;;;4.40;2.67;;;;;;;;;;5116528;28;20076;-73
2022/10/02 05:18:46;;;;;;;4.50;2.72;;;;;;;;;;5116455;28;20039;-73
2022/10/02 05:21:12;;;;;;;3.40;2.50;;;;;;;;;;5116433;28;20050;-73
2022/10/02 05:23:41;;;;;;;3.00;2.40;;;;;;;;;;5116312;28;20054;-73
2022/10/02 05:26:15;;;;;;;2.95;2.47;;;;;;;;;;5116327;28;20070;-74
2022/10/02 05:28:44;;;;;;;3.70;2.72;;;;;;;;;;5116101;28;20027;-73
2022/10/02 05:31:29;;;;;;;3.00;2.60;;;;;;;;;;5116539;28;20039;-73
2022/10/02 05:33:58;;;;;;;3.45;2.70;;;;;;;;;;5116761;28;20040;-73
2022/10/02 05:36:43;;;;;;;7.15;3.83;;;;;;;;;;5116402;28;20585;-73
2022/10/02 05:39:25;;;;;;;9.57;4.32;;;;;;;;;;5116578;28;20046;-73
2022/10/02 05:42:01;;;;;;;8.65;4.10;;;;;;;;;;5116888;28;20043;-73
2022/10/02 05:44:42;;;;;;;7.53;4.63;;;;;;;;;;5116121;28;20048;-73
2022/10/02 05:47:11;;;;;;;5.38;3.35;;;;;;;;;;5116494;28;20040;-73
2022/10/02 05:49:44;;;;;;;5.40;4.07;;;;;;;;;;5116072;28;20051;-73
2022/10/02 05:52:19;;;;;;;7.03;4.57;;;;;;;;;;5116128;28;20047;-73
2022/10/02 05:54:55;;;;;;;10.32;4.55;;;;;;;;;;5116067;28;20087;-73
2022/10/02 05:57:30;;;;;;;6.22;3.78;;;;;;;;;;5116456;27;20160;-73
2022/10/02 06:00:06;;;;;;;5.45;4.25;;;;;;;;;;5116037;28;20048;-73
2022/10/02 06:02:47;;;;;;;5.05;3.70;;;;;;;;;;5116530;28;20493;-73
2022/10/02 06:05:32;;;;;;;4.18;3.78;;;;;;;;;;5116145;28;20040;-73
2022/10/02 06:08:01;;;;;;;7.70;4.22;;;;;;;;;;5115494;28;20038;-73
2022/10/02 06:10:30;;;;;;;6.93;4.10;;;;;;;;;;5115369;28;20043;-73
2022/10/02 06:12:59;;;;;;;5.32;3.50;;;;;;;;;;5115859;28;20043;-73
2022/10/02 06:15:30;;;;;;;6.18;4.05;;;;;;;;;;5115899;28;20039;-73
2022/10/02 06:18:05;;;;;;;4.18;2.65;;;;;;;;;;5115981;27;20062;-73
2022/10/02 06:20:34;;;;;;;2.80;2.05;;;;;;;;;;5115982;28;20051;-73
2022/10/02 06:23:02;;;;;;;5.43;3.40;;;;;;;;;;5116031;28;20044;-73
2022/10/02 06:25:36;;;;;;;6.32;5.00;;;;;;;;;;5115749;28;20131;-73
2022/10/02 06:28:11;;;;;;;5.22;3.53;;;;;;;;;;5115073;28;20116;-73
2022/10/02 06:30:39;;;;;;;7.88;3.38;;;;;;;;;;5115386;28;20101;-73
2022/10/02 06:33:11;;;;;;;4.88;3.22;;;;;;;;;;5115647;28;20051;-73
2022/10/02 06:35:43;;;;;;;6.93;3.15;;;;;;;;;;5114734;28;20076;-73
2022/10/02 06:38:09;;;;;;;2.55;2.10;;;;;;;;;;5114964;28;20155;-73
2022/10/02 06:40:44;;;;;;;4.32;3.22;;;;;;;;;;5112524;28;20035;-73
2022/10/02 06:43:17;;;;;;;28.52;4.30;;;;;;;;;;5103691;28;20097;-73
2022/10/02 06:45:46;;;;;;;4.88;2.45;;;;;;;;;;5115047;28;20034;-73
2022/10/02 06:48:18;;;;;;;12.02;2.67;;;;;;;;;;5114467;28;20063;-73
2022/10/02 06:51:05;;;;;;;3.80;2.75;;;;;;;;;;5114500;28;20093;-73
2022/10/02 06:53:45;;;;;;;6.82;2.90;;;;;;;;;;5114296;28;20051;-73
2022/10/02 06:56:30;;;;;;;6.00;2.85;;;;;;;;;;5107331;28;20503;-73
2022/10/02 06:58:58;;;;;;;2.70;2.33;;;;;;;;;;5107996;28;20104;-73
2022/10/02 07:01:32;;;;;;;2.13;1.70;;;;;;;;;;5109291;28;20480;-73
2022/10/02 07:04:15;;;;;;;2.25;1.70;;;;;;;;;;5102880;28;20048;-73
2022/10/02 07:06:47;;;;;;;2.58;1.40;;;;;;;;;;5111015;28;20429;-73
2022/10/02 07:09:22;;;;;;;1.63;1.52;;;;;;;;;;5112573;28;20389;-73
2022/10/02 07:11:58;;;;;;;1.85;1.30;;;;;;;;;;5111118;28;20050;-74
2022/10/02 07:14:37;;;;;;;2.17;1.40;;;;;;;;;;5104489;28;20053;-74
2022/10/02 07:17:04;;;;;;;2.35;0.88;;;;;;;;;;5108191;28;20040;-74
2022/10/02 07:19:49;;;;;;;1.27;0.80;;;;;;;;;;5107205;28;20074;-73
2022/10/02 07:22:17;;;;;;;3.03;1.30;;;;;;;;;;5105925;28;20042;-74
2022/10/02 07:24:51;;;;;;;1.75;1.23;;;;;;;;;;5103038;28;20562;-74
2022/10/02 07:27:23;;;;;;;1.00;0.85;;;;;;;;;;5101367;28;20070;-73
2022/10/02 07:29:58;;;;;;;0.70;0.70;;;;;;;;;;5104404;28;20074;-73
2022/10/02 07:32:35;;;;;;;1.00;0.70;;;;;;;;;;5104471;28;20052;-74
2022/10/02 07:35:13;;;;;;;2.83;0.60;;;;;;;;;;5105927;28;20562;-74
2022/10/02 07:37:54;;;;;;;2.88;0.95;;;;;;;;;;5107853;28;20047;-73
2022/10/02 07:40:33;;;;;;;6.85;0.95;;;;;;;;;;5106774;28;20549;-74
2022/10/02 07:43:05;;;;;;;0.73;0.70;;;;;;;;;;5103145;28;20043;-74
2022/10/02 07:45:45;;;;;;;2.58;0.80;;;;;;;;;;5102648;28;20032;-74
2022/10/02 07:48:18;;;;;;;0.60;0.60;;;;;;;;;;5104382;28;20043;-75
2022/10/02 07:50:57;;;;;;;0.55;0.52;;;;;;;;;;5104297;28;20130;-74
2022/10/02 07:53:30;;;;;;;1.15;0.80;;;;;;;;;;5101253;28;20055;-74
2022/10/02 07:55:56;;;;;;;1.77;0.73;;;;;;;;;;5106864;28;20134;-74
2022/10/02 07:58:30;;;;;;;1.35;0.60;;;;;;;;;;5109665;28;20119;-73
2022/10/02 08:01:00;;;;;;;1.15;0.60;;;;;;;;;;5114716;28;20044;-73
2022/10/02 08:03:47;;;;;;;0.68;0.68;;;;;;;;;;5108761;28;20046;-73
2022/10/02 08:06:14;;;;;;;1.27;0.80;;;;;;;;;;5100353;28;20036;-74
2022/10/02 08:08:50;;;;;;;1.15;0.45;;;;;;;;;;5104060;28;20096;-74
2022/10/02 08:11:20;;;;;;;1.70;0.63;;;;;;;;;;5116858;28;20417;-74
2022/10/02 08:13:49;;;;;;;2.38;0.68;;;;;;;;;;5099804;27;20047;-74
2022/10/02 08:16:18;;;;;;;0.95;0.65;;;;;;;;;;5117108;28;20047;-74
2022/10/02 08:18:49;;;;;;;2.17;0.70;;;;;;;;;;5110587;28;20561;-75
2022/10/02 08:21:15;;;;;;;;;;;;;;;;;;5117919;28;20051;-74
2022/10/02 08:23:49;;;;;;;0.68;0.50;;;;;;;;;;5115385;28;19994;-72
2022/10/02 08:26:25;;;;;;;1.95;0.50;;;;;;;;;;5101524;28;20047;-72
2022/10/02 08:28:51;;;;;;;1.05;0.90;;;;;;;;;;5114715;28;20106;-71
2022/10/02 08:31:17;;;;;;;1.52;0.70;;;;;;;;;;5116168;28;20096;-72
2022/10/02 08:33:43;;;;;;;1.75;0.90;;;;;;;;;;5117509;28;20506;-73
2022/10/02 08:36:28;;;;;;;1.85;0.70;;;;;;;;;;5110824;28;20036;-71
2022/10/02 08:39:02;;;;;;;1.45;0.77;;;;;;;;;;5112984;28;20040;-71
2022/10/02 08:41:40;;;;;;;1.85;0.60;;;;;;;;;;5105689;28;20035;-71
2022/10/02 08:44:24;;;;;;;4.25;0.80;;;;;;;;;;5106145;28;20044;-71
2022/10/02 08:46:57;;;;;;;0.70;0.70;;;;;;;;;;5106069;28;20093;-72
2022/10/02 08:49:26;;;;;;;1.60;0.80;;;;;;;;;;5104693;28;20051;-72
2022/10/02 08:52:01;;;;;;;1.65;0.70;;;;;;;;;;5096634;28;20044;-72
2022/10/02 08:54:27;;;;;;;2.05;0.60;;;;;;;;;;5102666;28;20048;-72
2022/10/02 08:57:12;;;;;;;0.75;0.60;;;;;;;;;;5116795;28;20046;-71
2022/10/02 08:59:51;;;;;;;0.60;0.60;;;;;;;;;;5115315;28;20126;-71
2022/10/02 09:02:35;;;;;;;1.85;0.63;;;;;;;;;;5116096;28;20040;-70
2022/10/02 09:05:21;;;;;;;1.50;0.60;;;;;;;;;;5115686;28;20049;-70
2022/10/02 09:07:58;;;;;;;1.27;0.70;;;;;;;;;;5108784;28;20031;-70
2022/10/02 09:10:44;;;;;;;0.57;0.57;;;;;;;;;;5112339;28;20074;-71
2022/10/02 09:13:29;;;;;;;1.55;0.73;;;;;;;;;;5109067;28;20046;-70
2022/10/02 09:16:14;;;;;;;5.40;1.35;;;;;;;;;;5116116;28;20035;-70
2022/10/02 09:19:01;;;;;;;1.40;0.93;;;;;;;;;;5115799;28;20039;-69
2022/10/02 09:21:33;;;;;;;1.75;0.80;;;;;;;;;;5114967;28;20043;-71
2022/10/02 09:24:34;;;;;;;2.13;0.70;;;;;;;;;;5115284;28;20118;-74
2022/10/02 09:27:16;;;;;;;0.60;0.60;;;;;;;;;;5106310;28;20414;-78
2022/10/02 09:29:55;;;;;;;1.45;0.68;;;;;;;;;;5116109;28;20039;-69
2022/10/02 09:32:27;;;;;;;7.57;0.85;;;;;;;;;;5115616;28;20512;-74
2022/10/02 09:34:57;;;;;;;5.15;0.98;;;;;;;;;;5114499;28;20035;-76
2022/10/02 09:37:42;;;;;;;3.13;0.82;;;;;;;;;;5114085;28;20057;-76
2022/10/02 09:40:09;;;;;;;0.80;0.80;;;;;;;;;;5114672;28;20042;-76
2022/10/02 09:42:35;;;;;;;0.65;0.60;;;;;;;;;;5109470;28;20380;-76
2022/10/02 09:45:20;;;;;;;0.98;0.88;;;;;;;;;;5095862;28;20114;-76
2022/10/02 09:48:00;;;;;;;17.92;2.08;;;;;;;;;;5109218;28;20044;-75
2022/10/02 09:50:32;;;;;;;1.10;0.75;;;;;;;;;;5115447;27;20108;-74
2022/10/02 09:53:26;;;;;;;3.95;0.70;;;;;;;;;;5105062;28;20051;-73
2022/10/02 09:55:52;;;;;;;1.25;0.80;;;;;;;;;;5096946;28;20036;-73
2022/10/02 09:58:35;;;;;;;2.17;0.90;;;;;;;;;;5114545;28;20047;-73
2022/10/02 10:01:07;;;;;;;1.08;0.80;;;;;;;;;;5097722;28;20040;-73
2022/10/02 10:03:43;;;;;;;1.20;0.60;;;;;;;;;;5114998;28;20044;-73
2022/10/02 10:06:21;;;;;;;1.27;0.73;;;;;;;;;;5115238;28;20031;-74
2022/10/02 10:09:16;;;;;;;0.90;0.70;;;;;;;;;;5114853;28;20043;-73
2022/10/02 10:11:51;;;;;;;2.75;0.68;;;;;;;;;;5114661;28;20047;-73
2022/10/02 10:14:32;;;;;;;2.38;0.80;;;;;;;;;;5114711;28;20046;-73
2022/10/02 10:16:59;;;;;;;;;;;;;;;;;;5115379;28;20040;-73
2022/10/02 10:19:31;;;;;;;2.55;0.90;;;;;;;;;;5111845;28;19908;-74
2022/10/02 10:22:07;;;;;;;2.08;0.80;;;;;;;;;;5114960;28;20043;-73
2022/10/02 10:24:52;;;;;;;1.77;0.90;;;;;;;;;;5114692;28;20051;-73
2022/10/02 10:27:29;;;;;;;0.98;0.75;;;;;;;;;;5105152;28;20066;-74
2022/10/02 10:30:12;;;;;;;1.00;0.60;;;;;;;;;;5112663;28;20035;-73
2022/10/02 10:32:47;;;;;;;1.48;0.80;;;;;;;;;;5113860;28;20525;-72
2022/10/02 10:35:19;;;;;;;2.10;0.70;;;;;;;;;;5114796;28;20043;-73
2022/10/02 10:40:48;;;;;;;2.30;0.82;;;;;;;;;;5113845;28;20529;-73
2022/10/02 10:43:35;;;;;;;3.15;0.77;;;;;;;;;;5115145;28;20110;-72
2022/10/02 10:46:02;;;;;;;8.52;0.85;;;;;;;;;;5113087;28;20127;-73
2022/10/02 10:48:31;;;;;;;3.58;0.90;;;;;;;;;;5113738;28;20118;-73
2022/10/02 10:51:17;;;;;;;2.40;0.70;;;;;;;;;;5114348;28;20100;-73
2022/10/02 10:53:47;;;;;;;0.82;0.50;;;;;;;;;;5097316;28;20055;-73
2022/10/02 10:56:34;;;;;;;2.55;0.75;;;;;;;;;;5106420;28;20067;-73
2022/10/02 10:59:19;;;;;;;3.20;0.63;;;;;;;;;;5098503;28;20478;-74
2022/10/02 11:01:51;;;;;;;0.60;0.60;;;;;;;;;;5112579;28;20036;-73
2022/10/02 11:04:26;;;;;;;2.47;0.60;;;;;;;;;;5114728;28;20055;-73
2022/10/02 11:07:12;;;;;;;1.67;0.80;;;;;;;;;;5114883;28;20035;-73
2022/10/02 11:09:51;;;;;;;3.63;0.70;;;;;;;;;;5103888;28;20037;-74
2022/10/02 11:12:18;;;;;;;1.77;0.70;;;;;;;;;;5115093;28;20055;-73
2022/10/02 11:15:03;;;;;;;1.75;0.55;;;;;;;;;;5107194;28;20092;-74
2022/10/02 11:17:47;;;;;;;1.00;0.57;;;;;;;;;;5106661;28;20040;-73
2022/10/02 11:20:19;;;;;;;2.88;0.60;;;;;;;;;;5104571;28;20043;-73
2022/10/02 11:23:03;;;;;;;1.25;0.43;;;;;;;;;;5114390;28;20043;-73
2022/10/02 11:25:42;;;;;;;0.77;0.40;;;;;;;;;;5111254;28;20035;-73
2022/10/02 11:28:27;;;;;;;0.30;0.30;;;;;;;;;;5091617;28;20063;-78
2022/10/02 11:31:16;;;;;;;0.93;0.50;;;;;;;;;;5102837;28;20044;-77
2022/10/02 11:33:47;;;;;;;0.82;0.32;;;;;;;;;;5113548;28;20051;-76
2022/10/02 11:36:26;;;;;;;0.35;0.35;;;;;;;;;;5117571;28;20067;-79
2022/10/02 11:39:07;;;;;;;2.17;0.40;;;;;;;;;;5118769;28;20043;-80
2022/10/02 11:41:34;;;;;;;1.15;0.30;;;;;;;;;;5116479;28;20039;-78
2022/10/02 11:44:01;;;;;;;1.90;0.35;;;;;;;;;;5111532;28;20048;-77
2022/10/02 11:46:48;;;;;;;1.05;0.50;;;;;;;;;;5110436;28;20040;-77
2022/10/02 11:49:25;;;;;;;1.33;0.40;;;;;;;;;;5099586;28;20043;-76
2022/10/02 11:52:10;;;;;;;2.08;0.73;;;;;;;;;;5096893;28;20068;-74
2022/10/02 11:54:53;;;;;;;1.48;0.57;;;;;;;;;;5105766;28;20059;-74
2022/10/02 11:57:31;;;;;;;1.65;0.80;;;;;;;;;;5116062;28;20486;-74
2022/10/02 12:00:05;;;;;;;0.95;0.40;;;;;;;;;;5115455;28;20501;-73
2022/10/02 12:02:37;;;;;;;0.93;0.60;;;;;;;;;;5113658;28;20043;-75
2022/10/02 12:05:12;;;;;;;1.45;0.68;;;;;;;;;;5116576;28;20046;-75
2022/10/02 12:07:43;;;;;;;1.20;0.63;;;;;;;;;;5115206;28;20047;-74
2022/10/02 12:10:27;;;;;;;2.30;0.70;;;;;;;;;;5117489;28;20535;-74
2022/10/02 12:12:56;;;;;;;1.90;0.70;;;;;;;;;;5117125;28;20486;-75
2022/10/02 12:15:38;;;;;;;2.05;0.85;;;;;;;;;;5117131;28;20039;-75
2022/10/02 12:18:12;;;;;;;2.63;0.77;;;;;;;;;;5118053;28;20027;-75
2022/10/02 12:26:59;;;;;;;0.95;0.60;;;;;;;;;;5114437;28;20138;-74
2022/10/02 12:29:44;;;;;;;1.40;0.63;;;;;;;;;;5115518;28;20515;-74
2022/10/02 12:32:37;;;;;;;1.48;0.70;;;;;;;;;;5110010;28;20112;-72
2022/10/02 12:35:03;;;;;;;1.02;0.73;;;;;;;;;;5103377;28;20084;-74
2022/10/02 12:37:30;;;;;;;1.27;0.50;;;;;;;;;;5108829;28;20126;-73
2022/10/02 12:40:17;;;;;;;1.80;0.60;;;;;;;;;;5107382;28;20038;-75
2022/10/02 12:43:01;;;;;;;0.88;0.60;;;;;;;;;;5110577;28;20081;-75
2022/10/02 12:45:57;;;;;;;5.15;0.50;;;;;;;;;;5112212;28;20080;-75
2022/10/02 12:48:35;;;;;;;2.15;0.40;;;;;;;;;;5087081;28;20406;-75
2022/10/02 12:51:20;;;;;;;2.15;0.60;;;;;;;;;;5107567;28;20036;-75
2022/10/02 12:53:52;;;;;;;1.65;0.40;;;;;;;;;;5105588;28;20050;-75
2022/10/02 12:56:37;;;;;;;1.38;0.65;;;;;;;;;;5109564;28;20094;-75
2022/10/02 12:59:13;;;;;;;0.73;0.40;;;;;;;;;;5106576;28;20439;-74
2022/10/02 13:02:04;;;;;;;2.15;0.50;;;;;;;;;;5105843;28;20046;-75
2022/10/02 13:04:49;;;;;;;2.95;0.73;;;;;;;;;;5106772;28;20032;-75
2022/10/02 13:07:36;;;;;;;1.38;0.65;;;;;;;;;;5105036;28;20042;-75
2022/10/02 13:10:28;;;;;;;1.95;0.47;;;;;;;;;;5086600;28;20506;-76
2022/10/02 13:13:02;;;;;;;1.38;0.52;;;;;;;;;;5098744;28;20039;-75
2022/10/02 13:15:36;;;;;;;1.17;0.50;;;;;;;;;;5114945;28;20056;-75
2022/10/02 13:18:12;;;;;;;1.80;0.50;;;;;;;;;;5115185;28;20140;-74
2022/10/02 13:20:41;;;;;;;1.15;0.50;;;;;;;;;;5115544;28;20060;-74
2022/10/02 13:23:07;;;;;;;1.85;0.77;;;;;;;;;;5115412;28;20078;-75
2022/10/02 13:25:37;;;;;;;0.75;0.50;;;;;;;;;;5114845;28;20542;-75
2022/10/02 13:28:33;;;;;;;1.27;0.63;;;;;;;;;;5114798;28;20056;-75
2022/10/02 13:31:02;;;;;;;1.13;0.68;;;;;;;;;;5040987;28;20099;-76
2022/10/02 13:33:47;;;;;;;1.52;0.73;;;;;;;;;;5112234;28;20054;-75
2022/10/02 13:36:19;;;;;;;1.92;0.90;;;;;;;;;;5103538;28;20123;-74
2022/10/02 13:39:07;;;;;;;1.50;0.73;;;;;;;;;;5114236;28;20461;-74
2022/10/02 13:41:37;;;;;;;3.53;0.93;;;;;;;;;;5110986;28;20120;-74
2022/10/02 13:44:22;;;;;;;3.90;0.70;;;;;;;;;;5105260;28;20032;-74
2022/10/02 13:46:58;;;;;;;0.82;0.60;;;;;;;;;;5105211;28;20098;-76
2022/10/02 13:49:24;;;;;;;1.38;0.55;;;;;;;;;;5106233;28;20079;-76
2022/10/02 13:51:57;;;;;;;1.33;0.70;;;;;;;;;;5111043;28;20509;-74
2022/10/02 13:54:29;;;;;;;2.10;0.70;;;;;;;;;;5111880;28;20056;-76
2022/10/02 13:56:59;;;;;;;3.72;0.70;;;;;;;;;;5110694;28;20162;-76
2022/10/02 13:59:31;;;;;;;0.63;0.60;;;;;;;;;;5109846;28;20039;-74
2022/10/02 14:02:20;;;;;;;1.55;0.70;;;;;;;;;;5101813;28;20043;-77
2022/10/02 14:04:50;;;;;;;0.95;0.70;;;;;;;;;;5096528;28;20161;-75
2022/10/02 14:07:19;;;;;;;2.30;0.70;;;;;;;;;;5111922;28;20389;-76
2022/10/02 14:09:58;;;;;;;0.70;0.60;;;;;;;;;;5109805;28;20104;-75
2022/10/02 14:12:28;;;;;;;2.65;0.73;;;;;;;;;;5106588;28;20054;-75
2022/10/02 14:15:00;;;;;;;1.75;0.70;;;;;;;;;;5107031;28;20035;-73
2022/10/02 14:17:26;;;;;;;1.58;0.75;;;;;;;;;;5104144;28;20116;-75
2022/10/02 14:19:56;;;;;;;1.40;1.00;;;;;;;;;;5102822;28;20134;-77
2022/10/02 14:22:34;;;;;;;1.48;0.75;;;;;;;;;;5092816;28;20455;-72
2022/10/02 14:25:21;;;;;;;2.42;0.50;;;;;;;;;;5102223;28;20051;-72
2022/10/02 14:27:47;;;;;;;1.92;0.60;;;;;;;;;;5096798;28;20549;-74
2022/10/02 14:30:20;;;;;;;0.63;0.43;;;;;;;;;;5093495;28;20046;-74
2022/10/02 14:32:48;;;;;;;1.80;0.52;;;;;;;;;;5100852;28;20060;-72
2022/10/02 14:35:30;;;;;;;2.60;0.65;;;;;;;;;;5108367;28;20031;-74
2022/10/02 14:38:09;;;;;;;1.15;0.40;;;;;;;;;;5107348;28;20559;-75
2022/10/02 14:40:49;;;;;;;2.15;0.50;;;;;;;;;;5111531;28;20039;-74
2022/10/02 14:43:31;;;;;;;0.70;0.60;;;;;;;;;;5112064;28;20044;-74
2022/10/02 14:45:58;;;;;;;0.80;0.50;;;;;;;;;;5106984;28;20043;-74
2022/10/02 14:48:54;;;;;;;0.93;0.60;;;;;;;;;;5110227;28;20059;-75
2022/10/02 14:51:33;;;;;;;0.93;0.60;;;;;;;;;;5094926;28;20050;-75
2022/10/02 14:54:02;;;;;;;0.73;0.70;;;;;;;;;;5113265;28;20073;-75
2022/10/02 14:56:47;;;;;;;1.55;0.65;;;;;;;;;;5113624;28;20040;-74
2022/10/02 14:59:22;;;;;;;1.02;0.50;;;;;;;;;;5099915;28;20027;-74
2022/10/02 15:01:52;;;;;;;4.47;0.70;;;;;;;;;;5111479;28;20043;-74
2022/10/02 15:04:30;;;;;;;3.15;1.02;;;;;;;;;;5112148;28;20047;-76
2022/10/02 15:07:00;;;;;;;1.13;0.60;;;;;;;;;;5111319;28;20047;-77
2022/10/02 15:09:26;;;;;;;0.70;0.60;;;;;;;;;;5111280;28;20051;-77
2022/10/02 15:12:01;;;;;;;2.35;0.77;;;;;;;;;;5101526;28;20131;-77
2022/10/02 15:14:33;;;;;;;0.88;0.47;;;;;;;;;;5107709;28;20150;-74
2022/10/02 15:20:14;;;;;;;1.83;0.60;;;;;;;;;;5099867;28;22062;-74
2022/10/02 15:22:54;;;;;;;0.93;0.55;;;;;;;;;;5082082;28;20044;-74
2022/10/02 15:25:32;;;;;;;0.90;0.50;;;;;;;;;;5110852;28;20044;-73
2022/10/02 15:28:06;;;;;;;3.17;1.50;;;;;;;;;;5109312;28;20052;-76
2022/10/02 15:30:38;;;;;;;3.65;1.08;;;;;;;;;;5101974;28;20109;-72
2022/10/02 15:33:20;;;;;;;1.08;0.60;;;;;;;;;;5106282;28;20044;-72
2022/10/02 15:36:05;;;;;;;0.80;0.65;;;;;;;;;;5102938;28;20048;-72
2022/10/02 15:38:54;;;;;;;2.03;0.68;;;;;;;;;;5107010;28;20043;-72
2022/10/02 15:41:39;;;;;;;1.75;0.55;;;;;;;;;;5110632;28;20040;-72
2022/10/02 15:44:06;;;;;;;1.45;0.70;;;;;;;;;;5112456;28;20101;-72